createdAt,value
2022-11-16T00:01:53.528Z,11.20
2022-11-16T00:04:39.212Z,11.30
2022-11-16T00:07:24.991Z,11.70
2022-11-16T00:10:11.479Z,11.90
2022-11-16T00:12:56.970Z,11.40
2022-11-16T00:15:42.385Z,11.20
2022-11-16T00:18:28.129Z,11.10
2022-11-16T00:21:13.960Z,11.20
2022-11-16T00:23:59.858Z,11.40
2022-11-16T00:26:45.868Z,11.40
2022-11-16T00:29:32.085Z,11.70
2022-11-16T00:32:18.088Z,11.40
2022-11-16T00:35:04.098Z,11.20
2022-11-16T00:37:52.202Z,11.10
2022-11-16T00:40:37.753Z,11.60
2022-11-16T00:43:24.785Z,11.70
2022-11-16T00:46:10.903Z,11.30
2022-11-16T00:48:56.435Z,11.00
2022-11-16T00:51:42.157Z,10.90
2022-11-16T00:54:29.426Z,11.20
2022-11-16T00:57:15.232Z,11.10
2022-11-16T01:00:01.435Z,10.90
2022-11-16T01:02:49.046Z,10.90
2022-11-16T01:05:35.005Z,10.80
2022-11-16T01:08:20.751Z,10.80
2022-11-16T01:11:26.984Z,11.30
2022-11-16T01:14:12.591Z,11.20
2022-11-16T01:16:58.477Z,11.10
2022-11-16T01:19:44.048Z,11.60
2022-11-16T01:26:58.207Z,11.70
2022-11-16T01:29:48.485Z,11.70
2022-11-16T01:32:35.477Z,11.50
2022-11-16T01:35:22.529Z,11.10
2022-11-16T01:38:08.733Z,11.10
2022-11-16T01:40:54.808Z,11.20
2022-11-16T01:44:02.227Z,11.30
2022-11-16T01:47:10.540Z,11.40
2022-11-16T01:50:03.488Z,11.80
2022-11-16T01:52:57.779Z,12.10
2022-11-16T01:55:48.682Z,12.10
2022-11-16T01:58:41.311Z,11.40
2022-11-16T02:01:34.199Z,11.30
2022-11-16T02:04:20.978Z,11.70
2022-11-16T02:08:10.995Z,11.60
2022-11-16T02:11:11.995Z,11.20
2022-11-16T02:14:09.937Z,11.60
2022-11-16T02:17:04.774Z,11.40
2022-11-16T02:19:56.367Z,11.20
2022-11-16T02:23:03.547Z,11.30
2022-11-16T02:26:37.449Z,11.40
2022-11-16T02:29:35.767Z,11.40
2022-11-16T02:32:48.186Z,11.50
2022-11-16T02:35:39.763Z,11.80
2022-11-16T02:38:31.176Z,12.10
2022-11-16T02:41:21.004Z,12.10
2022-11-16T02:44:12.293Z,11.90
2022-11-16T02:47:03.800Z,11.50
2022-11-16T02:49:55.907Z,12.00
2022-11-16T02:52:41.422Z,12.10
2022-11-16T02:55:30.652Z,12.20
2022-11-16T02:58:25.890Z,12.30
2022-11-16T03:01:25.336Z,12.40
2022-11-16T03:04:43.174Z,11.40
2022-11-16T03:07:44.120Z,12.40
2022-11-16T03:10:49.930Z,12.30
2022-11-16T03:13:37.447Z,12.20
2022-11-16T03:16:34.761Z,12.20
2022-11-16T03:19:36.493Z,12.30
2022-11-16T03:22:45.820Z,11.70
2022-11-16T03:25:37.834Z,12.20
2022-11-16T03:28:32.895Z,12.20
2022-11-16T03:31:34.268Z,12.40
2022-11-16T03:34:23.454Z,12.50
2022-11-16T03:37:11.555Z,12.50
2022-11-16T03:40:01.319Z,12.50
2022-11-16T03:42:50.691Z,12.20
2022-11-16T03:45:37.451Z,12.10
2022-11-16T03:48:24.915Z,12.30
2022-11-16T03:51:12.337Z,12.30
2022-11-16T03:53:59.371Z,12.30
2022-11-16T03:56:44.705Z,12.20
2022-11-16T03:59:31.359Z,12.20
2022-11-16T04:02:18.476Z,12.10
2022-11-16T04:05:24.689Z,12.10
2022-11-16T04:08:36.721Z,12.30
2022-11-16T04:11:42.748Z,12.30
2022-11-16T04:14:47.323Z,12.10
2022-11-16T04:17:54.498Z,12.20
2022-11-16T04:20:59.089Z,12.30
2022-11-16T04:24:04.717Z,12.40
2022-11-16T04:27:14.130Z,12.30
2022-11-16T04:30:01.189Z,12.20
2022-11-16T04:33:07.470Z,12.40
2022-11-16T04:36:17.914Z,12.10
2022-11-16T04:39:06.365Z,11.80
2022-11-16T04:42:11.579Z,11.70
2022-11-16T04:45:16.443Z,11.60
2022-11-16T04:48:10.228Z,12.00
2022-11-16T04:50:56.694Z,11.80
2022-11-16T04:53:43.324Z,11.80
2022-11-16T04:56:36.405Z,11.70
2022-11-16T04:59:22.562Z,11.70
2022-11-16T05:02:08.990Z,11.50
2022-11-16T05:05:02.212Z,11.60
2022-11-16T05:07:48.708Z,11.70
2022-11-16T05:10:40.214Z,11.90
2022-11-16T05:13:26.519Z,12.00
2022-11-16T05:16:11.996Z,12.10
2022-11-16T05:19:17.718Z,12.00
2022-11-16T05:22:03.353Z,12.10
2022-11-16T05:24:48.824Z,12.10
2022-11-16T05:27:34.583Z,12.10
2022-11-16T05:30:20.691Z,12.00
2022-11-16T05:33:06.387Z,11.70
2022-11-16T05:35:56.810Z,11.90
2022-11-16T05:38:42.418Z,11.70
2022-11-16T05:41:27.878Z,11.60
2022-11-16T05:44:14.427Z,11.90
2022-11-16T05:47:00.781Z,12.20
2022-11-16T05:49:47.305Z,12.30
2022-11-16T05:52:33.292Z,11.80
2022-11-16T05:55:23.958Z,12.10
2022-11-16T05:58:09.509Z,11.90
2022-11-16T06:00:54.964Z,11.60
2022-11-16T06:03:41.138Z,11.90
2022-11-16T06:06:28.095Z,12.00
2022-11-16T06:09:14.228Z,12.10
2022-11-16T06:11:59.808Z,12.10
2022-11-16T06:14:46.233Z,12.10
2022-11-16T06:17:33.820Z,11.70
2022-11-16T06:20:19.977Z,11.70
2022-11-16T06:23:06.815Z,11.70
2022-11-16T06:25:55.120Z,11.90
2022-11-16T06:28:43.458Z,12.00
2022-11-16T06:31:29.466Z,12.30
2022-11-16T06:34:18.094Z,12.20
2022-11-16T06:37:05.499Z,12.20
2022-11-16T06:39:52.524Z,11.90
2022-11-16T06:42:38.029Z,11.90
2022-11-16T06:45:27.492Z,11.80
2022-11-16T06:48:15.726Z,11.40
2022-11-16T06:51:02.319Z,11.50
2022-11-16T06:53:48.115Z,11.80
2022-11-16T06:56:35.241Z,12.00
2022-11-16T06:59:20.975Z,12.20
2022-11-16T07:02:07.128Z,12.30
2022-11-16T07:05:02.143Z,12.40
2022-11-16T07:07:55.076Z,12.40
2022-11-16T07:10:41.134Z,12.40
2022-11-16T07:13:27.162Z,12.50
2022-11-16T07:16:13.042Z,12.50
2022-11-16T07:19:05.229Z,12.40
2022-11-16T07:21:53.065Z,12.50
2022-11-16T07:24:38.616Z,12.40
2022-11-16T07:27:24.119Z,12.40
2022-11-16T07:30:11.753Z,12.50
2022-11-16T07:33:17.110Z,12.60
2022-11-16T07:36:25.089Z,12.60
2022-11-16T07:39:13.091Z,12.90
2022-11-16T07:41:59.039Z,13.20
2022-11-16T07:45:05.274Z,13.20
2022-11-16T07:47:55.703Z,12.70
2022-11-16T07:51:05.863Z,13.20
2022-11-16T07:53:56.080Z,14.70
2022-11-16T07:56:42.666Z,15.00
2022-11-16T07:59:28.861Z,14.90
2022-11-16T08:02:14.535Z,14.60
2022-11-16T08:05:02.057Z,14.30
2022-11-16T08:07:48.277Z,13.50
2022-11-16T08:10:35.096Z,12.90
2022-11-16T08:13:21.491Z,12.50
2022-11-16T08:16:11.363Z,12.40
2022-11-16T08:18:57.530Z,12.50
2022-11-16T08:21:45.828Z,12.50
2022-11-16T08:24:32.831Z,12.50
2022-11-16T08:27:18.373Z,12.20
2022-11-16T08:30:10.260Z,11.90
2022-11-16T08:32:57.731Z,12.70
2022-11-16T08:35:44.676Z,12.70
2022-11-16T08:38:30.658Z,12.50
2022-11-16T08:41:19.826Z,12.60
2022-11-16T08:44:06.053Z,12.50
2022-11-16T08:46:55.045Z,12.20
2022-11-16T08:49:54.336Z,12.20
2022-11-16T08:52:41.193Z,12.40
2022-11-16T08:55:27.098Z,12.40
2022-11-16T08:58:12.893Z,12.60
2022-11-16T09:00:59.300Z,13.00
2022-11-16T09:03:45.437Z,13.00
2022-11-16T09:06:30.976Z,12.70
2022-11-16T09:09:16.392Z,12.90
2022-11-16T09:12:01.897Z,12.80
2022-11-16T09:14:47.645Z,12.40
2022-11-16T09:17:33.357Z,12.60
2022-11-16T09:20:22.007Z,12.70
2022-11-16T09:23:07.695Z,12.70
2022-11-16T09:25:54.882Z,13.00
2022-11-16T09:28:40.775Z,14.40
2022-11-16T09:31:28.196Z,15.10
2022-11-16T09:34:13.876Z,15.70
2022-11-16T09:37:00.841Z,15.60
2022-11-16T09:39:47.422Z,15.50
2022-11-16T09:42:45.842Z,15.90
2022-11-16T09:45:36.369Z,14.60
2022-11-16T09:48:22.864Z,14.70
2022-11-16T09:51:12.279Z,14.60
2022-11-16T09:54:11.731Z,14.30
2022-11-16T09:57:12.246Z,13.80
2022-11-16T10:00:04.442Z,13.50
2022-11-16T10:03:06.588Z,13.70
2022-11-16T10:06:06.207Z,13.90
2022-11-16T10:08:54.147Z,13.10
2022-11-16T10:11:52.420Z,12.90
2022-11-16T10:14:43.812Z,12.80
2022-11-16T10:17:51.785Z,12.80
2022-11-16T10:20:54.115Z,12.80
2022-11-16T10:24:01.030Z,12.70
2022-11-16T10:26:49.786Z,12.60
2022-11-16T10:29:50.765Z,12.70
2022-11-16T10:33:01.123Z,12.80
2022-11-16T10:35:53.277Z,13.30
2022-11-16T10:38:41.305Z,13.10
2022-11-16T10:41:42.839Z,13.20
2022-11-16T10:44:39.808Z,13.10
2022-11-16T10:47:34.721Z,13.30
2022-11-16T10:50:39.771Z,13.80
2022-11-16T10:53:33.543Z,13.80
2022-11-16T10:56:39.603Z,13.40
2022-11-16T10:59:45.516Z,13.30
2022-11-16T11:02:37.308Z,13.40
2022-11-16T11:05:23.001Z,13.60
2022-11-16T11:08:12.545Z,13.40
2022-11-16T11:11:38.099Z,13.60
2022-11-16T11:14:23.772Z,13.70
2022-11-16T11:17:17.597Z,13.70
2022-11-16T11:20:15.224Z,14.00
2022-11-16T11:23:11.504Z,14.20
2022-11-16T11:26:00.872Z,14.30
2022-11-16T11:28:49.212Z,13.60
2022-11-16T11:31:38.867Z,13.60
2022-11-16T11:34:32.496Z,13.50
2022-11-16T11:37:25.934Z,13.30
2022-11-16T11:40:29.430Z,13.30
2022-11-16T11:43:25.400Z,13.20
2022-11-16T11:46:22.831Z,13.40
2022-11-16T11:49:23.357Z,13.80
2022-11-16T11:52:27.679Z,14.20
2022-11-16T11:55:15.825Z,14.10
2022-11-16T11:58:03.933Z,14.30
2022-11-16T12:01:17.429Z,14.50
2022-11-16T12:04:31.980Z,14.80
2022-11-16T12:07:32.337Z,14.10
2022-11-16T12:10:46.487Z,13.80
2022-11-16T12:13:57.914Z,13.70
2022-11-16T12:17:06.345Z,13.70
2022-11-16T12:20:03.279Z,13.60
2022-11-16T12:23:04.525Z,13.70
2022-11-16T12:26:14.819Z,13.50
2022-11-16T12:29:24.952Z,13.60
2022-11-16T12:32:34.479Z,13.70
2022-11-16T12:35:41.007Z,13.90
2022-11-16T12:39:12.973Z,13.90
2022-11-16T12:42:11.927Z,13.80
2022-11-16T12:45:32.207Z,13.60
2022-11-16T12:48:28.605Z,13.40
2022-11-16T12:52:08.974Z,13.60
2022-11-16T12:55:25.389Z,13.60
2022-11-16T12:58:10.255Z,13.70
2022-11-16T13:01:02.699Z,13.70
2022-11-16T13:03:55.229Z,13.80
2022-11-16T13:06:46.506Z,13.90
2022-11-16T13:09:38.472Z,13.90
2022-11-16T13:12:26.825Z,14.00
2022-11-16T13:15:19.313Z,14.20
2022-11-16T13:18:11.303Z,14.50
2022-11-16T13:21:11.765Z,14.20
2022-11-16T13:23:57.117Z,13.90
2022-11-16T13:26:56.823Z,13.90
2022-11-16T13:30:09.136Z,13.90
2022-11-16T13:33:16.671Z,13.70
2022-11-16T13:36:31.663Z,14.10
2022-11-16T13:39:22.555Z,14.00
2022-11-16T13:42:14.439Z,13.80
2022-11-16T13:45:17.056Z,13.50
2022-11-16T13:48:14.154Z,13.50
2022-11-16T13:51:10.171Z,13.60
2022-11-16T13:57:05.555Z,13.90
2022-11-16T14:00:01.871Z,13.80
2022-11-16T14:03:09.782Z,13.90
2022-11-16T14:05:55.617Z,14.10
2022-11-16T14:08:48.937Z,14.00
2022-11-16T14:11:39.342Z,14.20
2022-11-16T14:15:03.947Z,14.40
2022-11-16T14:17:54.064Z,14.10
2022-11-16T14:20:59.199Z,14.30
2022-11-16T14:23:47.793Z,14.50
2022-11-16T14:27:13.229Z,14.00
2022-11-16T14:30:27.141Z,14.20
2022-11-16T14:33:23.733Z,14.00
2022-11-16T14:36:10.804Z,13.90
2022-11-16T14:39:17.429Z,13.70
2022-11-16T14:42:26.956Z,13.60
2022-11-16T14:45:25.710Z,13.80
2022-11-16T14:48:15.654Z,13.90
2022-11-16T14:51:04.509Z,13.90
2022-11-16T14:53:55.570Z,14.00
2022-11-16T14:56:58.543Z,13.90
2022-11-16T14:59:44.354Z,13.80
2022-11-16T15:02:32.584Z,13.90
2022-11-16T15:05:21.395Z,13.70
2022-11-16T15:08:19.074Z,13.40
2022-11-16T15:11:10.492Z,13.70
2022-11-16T15:13:56.221Z,13.60
2022-11-16T15:16:52.628Z,13.50
2022-11-16T15:19:38.253Z,13.50
2022-11-16T15:22:26.320Z,13.40
2022-11-16T15:25:27.168Z,13.60
2022-11-16T15:28:26.694Z,14.00
2022-11-16T15:31:14.925Z,13.90
2022-11-16T15:34:01.740Z,13.80
2022-11-16T15:36:48.804Z,13.60
2022-11-16T15:39:36.495Z,13.40
2022-11-16T15:42:23.849Z,13.20
2022-11-16T15:45:22.302Z,13.20
2022-11-16T15:48:09.724Z,13.30
2022-11-16T15:51:04.315Z,13.40
2022-11-16T15:53:55.455Z,13.40
2022-11-16T15:56:41.918Z,13.50
2022-11-16T15:59:32.251Z,13.60
2022-11-16T16:02:20.900Z,13.60
2022-11-16T16:05:06.939Z,13.30
2022-11-16T16:07:52.763Z,13.20
2022-11-16T16:10:38.680Z,13.30
2022-11-16T16:13:29.425Z,13.20
2022-11-16T16:16:24.264Z,13.30
2022-11-16T16:19:35.196Z,13.40
2022-11-16T16:22:35.859Z,13.40
2022-11-16T16:25:30.412Z,13.50
2022-11-16T16:28:16.072Z,13.30
2022-11-16T16:31:01.608Z,13.40
2022-11-16T16:33:48.628Z,13.40
2022-11-16T16:36:34.748Z,13.50
2022-11-16T16:39:20.133Z,13.60
2022-11-16T16:42:09.682Z,13.70
2022-11-16T16:44:59.473Z,13.60
2022-11-16T16:47:45.099Z,13.50
2022-11-16T16:50:30.756Z,13.40
2022-11-16T16:53:16.940Z,13.20
2022-11-16T16:56:02.723Z,13.30
2022-11-16T16:58:48.125Z,13.30
2022-11-16T17:01:35.195Z,13.20
2022-11-16T17:04:21.797Z,13.20
2022-11-16T17:07:07.362Z,13.40
2022-11-16T17:09:52.787Z,13.60
2022-11-16T17:12:38.377Z,13.60
2022-11-16T17:15:24.106Z,13.70
2022-11-16T17:18:10.315Z,13.70
2022-11-16T17:20:56.042Z,13.70
2022-11-16T17:23:41.506Z,13.40
2022-11-16T17:26:29.457Z,13.40
2022-11-16T17:29:15.316Z,13.40
2022-11-16T17:32:00.913Z,13.40
2022-11-16T17:34:46.718Z,13.30
2022-11-16T17:37:32.213Z,13.30
2022-11-16T17:40:17.698Z,13.20
2022-11-16T17:43:03.308Z,13.20
2022-11-16T17:45:48.924Z,13.30
2022-11-16T17:48:35.726Z,13.40
2022-11-16T17:51:24.350Z,13.40
2022-11-16T17:54:09.667Z,13.50
2022-11-16T17:56:55.083Z,13.30
2022-11-16T17:59:40.605Z,13.30
2022-11-16T18:02:26.355Z,13.30
2022-11-16T18:05:11.565Z,13.30
2022-11-16T18:07:58.037Z,13.30
2022-11-16T18:10:44.596Z,13.20
2022-11-16T18:13:30.304Z,13.30
2022-11-16T18:16:18.210Z,13.40
2022-11-16T18:19:05.901Z,13.40
2022-11-16T18:21:51.674Z,13.30
2022-11-16T18:24:36.950Z,12.70
2022-11-16T18:27:22.443Z,13.20
2022-11-16T18:30:08.429Z,13.20
2022-11-16T18:32:54.059Z,13.20
2022-11-16T18:35:39.878Z,13.30
2022-11-16T18:38:27.131Z,13.40
2022-11-16T18:41:12.643Z,13.40
2022-11-16T18:44:02.207Z,13.40
2022-11-16T18:46:47.676Z,13.40
2022-11-16T18:49:33.234Z,13.40
2022-11-16T18:52:18.834Z,13.50
2022-11-16T18:55:05.641Z,13.40
2022-11-16T18:57:50.968Z,13.30
2022-11-16T19:00:36.625Z,13.30
2022-11-16T19:03:22.694Z,13.30
2022-11-16T19:06:10.174Z,13.30
2022-11-16T19:08:59.480Z,13.40
2022-11-16T19:11:46.278Z,13.30
2022-11-16T19:14:32.346Z,13.30
2022-11-16T19:17:19.268Z,13.30
2022-11-16T19:20:04.963Z,13.30
2022-11-16T19:22:50.636Z,13.10
2022-11-16T19:25:36.611Z,13.20
2022-11-16T19:28:23.577Z,13.20
2022-11-16T19:31:14.195Z,13.20
2022-11-16T19:34:05.234Z,13.20
2022-11-16T19:36:50.887Z,13.30
2022-11-16T19:39:36.495Z,13.20
2022-11-16T19:42:22.239Z,13.30
2022-11-16T19:45:08.394Z,13.40
2022-11-16T19:47:56.254Z,13.30
2022-11-16T19:50:41.769Z,13.10
2022-11-16T19:53:27.301Z,13.10
2022-11-16T19:56:15.270Z,13.10
2022-11-16T19:59:00.703Z,13.00
2022-11-16T20:01:46.550Z,13.20
2022-11-16T20:04:35.135Z,13.20
2022-11-16T20:07:21.279Z,13.10
2022-11-16T20:10:07.361Z,13.20
2022-11-16T20:12:53.259Z,13.20
2022-11-16T20:15:38.537Z,13.30
2022-11-16T20:18:24.502Z,13.40
2022-11-16T20:21:23.198Z,13.40
2022-11-16T20:24:11.955Z,13.40
2022-11-16T20:26:58.485Z,13.30
2022-11-16T20:29:44.037Z,13.30
2022-11-16T20:32:29.475Z,13.30
2022-11-16T20:35:18.943Z,13.30
2022-11-16T20:38:05.409Z,13.30
2022-11-16T20:40:50.913Z,13.30
2022-11-16T20:43:39.292Z,13.30
2022-11-16T20:46:26.895Z,13.20
2022-11-16T20:49:12.746Z,13.10
2022-11-16T20:51:58.637Z,13.10
2022-11-16T20:54:44.362Z,13.10
2022-11-16T20:57:29.810Z,13.20
2022-11-16T21:00:16.210Z,13.10
2022-11-16T21:03:01.886Z,12.80
2022-11-16T21:05:52.086Z,12.60
2022-11-16T21:08:38.605Z,12.50
2022-11-16T21:11:30.220Z,12.60
2022-11-16T21:14:16.072Z,12.80
2022-11-16T21:17:01.460Z,12.80
2022-11-16T21:20:12.302Z,12.90
2022-11-16T21:22:52.951Z,13.10
2022-11-16T21:25:38.548Z,12.40
2022-11-16T21:28:25.619Z,12.40
2022-11-16T21:31:19.963Z,12.30
2022-11-16T21:34:07.380Z,12.10
2022-11-16T21:36:53.205Z,12.10
2022-11-16T21:39:38.729Z,12.10
2022-11-16T21:42:24.695Z,12.30
2022-11-16T21:45:10.910Z,12.40
2022-11-16T21:47:57.447Z,12.50
2022-11-16T21:50:43.399Z,12.40
2022-11-16T21:53:29.008Z,12.20
2022-11-16T21:56:20.018Z,12.40
2022-11-16T21:59:05.824Z,12.40
2022-11-16T22:02:00.159Z,12.10
2022-11-16T22:05:03.835Z,12.00
2022-11-16T22:07:49.624Z,11.90
2022-11-16T22:10:35.292Z,11.90
2022-11-16T22:13:21.466Z,11.90
2022-11-16T22:16:12.891Z,11.80
2022-11-16T22:18:58.394Z,11.80
2022-11-16T22:21:44.109Z,11.80
2022-11-16T22:24:29.519Z,11.90
2022-11-16T22:27:16.053Z,11.90
2022-11-16T22:30:01.530Z,11.90
2022-11-16T22:32:46.973Z,12.00
2022-11-16T22:35:32.385Z,11.80
2022-11-16T22:38:17.910Z,11.60
2022-11-16T22:41:04.288Z,11.60
2022-11-16T22:43:49.936Z,11.40
2022-11-16T22:46:35.444Z,11.70
2022-11-16T22:49:21.097Z,11.70
2022-11-16T22:52:06.511Z,11.20
2022-11-16T22:54:51.994Z,10.90
2022-11-16T22:57:37.510Z,10.70
2022-11-16T23:00:23.554Z,10.70
2022-11-16T23:03:09.181Z,10.60
2022-11-16T23:05:54.475Z,10.50
2022-11-16T23:08:41.031Z,10.60
2022-11-16T23:11:45.955Z,10.60
2022-11-16T23:14:49.854Z,10.70
2022-11-16T23:17:35.333Z,11.00
2022-11-16T23:20:39.126Z,11.10
2022-11-16T23:23:42.979Z,10.90
2022-11-16T23:26:47.041Z,11.00
2022-11-16T23:29:32.704Z,10.90
2022-11-16T23:32:20.195Z,11.10
2022-11-16T23:35:07.011Z,11.30
2022-11-16T23:38:03.530Z,11.40
2022-11-16T23:40:48.937Z,11.50
2022-11-16T23:43:52.746Z,11.40
2022-11-16T23:46:38.331Z,11.40
2022-11-16T23:49:23.779Z,11.50
2022-11-16T23:52:09.323Z,11.40
2022-11-16T23:54:54.804Z,11.30
2022-11-16T23:57:40.466Z,11.30
